sensor_id;sensor_type;location;lat;lon;timestamp;temperature;humidity
14873;DHT22;7528;48.576;19.122;2023-10-19T00:04:10;7.80;59.30
14873;DHT22;7528;48.576;19.122;2023-10-19T00:09:14;7.90;59.30
14873;DHT22;7528;48.576;19.122;2023-10-19T00:14:17;7.90;59.30
14873;DHT22;7528;48.576;19.122;2023-10-19T00:19:19;8.00;59.90
14873;DHT22;7528;48.576;19.122;2023-10-19T00:24:23;8.00;59.70
14873;DHT22;7528;48.576;19.122;2023-10-19T00:29:26;8.10;59.70
14873;DHT22;7528;48.576;19.122;2023-10-19T00:34:32;8.10;60.30
14873;DHT22;7528;48.576;19.122;2023-10-19T00:39:37;8.10;60.60
14873;DHT22;7528;48.576;19.122;2023-10-19T00:44:44;8.10;60.90
14873;DHT22;7528;48.576;19.122;2023-10-19T00:49:50;8.10;61.40
14873;DHT22;7528;48.576;19.122;2023-10-19T00:54:56;8.20;61.70
14873;DHT22;7528;48.576;19.122;2023-10-19T01:00:00;8.20;62.00
14873;DHT22;7528;48.576;19.122;2023-10-19T01:05:12;8.30;62.30
14873;DHT22;7528;48.576;19.122;2023-10-19T01:10:16;8.30;62.40
14873;DHT22;7528;48.576;19.122;2023-10-19T01:15:22;8.30;62.60
14873;DHT22;7528;48.576;19.122;2023-10-19T01:20:31;8.30;63.00
14873;DHT22;7528;48.576;19.122;2023-10-19T01:25:51;8.30;63.50
14873;DHT22;7528;48.576;19.122;2023-10-19T01:31:01;8.40;63.30
14873;DHT22;7528;48.576;19.122;2023-10-19T01:36:07;8.40;63.60
14873;DHT22;7528;48.576;19.122;2023-10-19T01:41:14;8.40;63.50
14873;DHT22;7528;48.576;19.122;2023-10-19T01:46:20;8.40;63.70
14873;DHT22;7528;48.576;19.122;2023-10-19T01:51:27;8.40;63.70
14873;DHT22;7528;48.576;19.122;2023-10-19T01:56:31;8.50;64.00
14873;DHT22;7528;48.576;19.122;2023-10-19T02:01:36;8.50;64.40
14873;DHT22;7528;48.576;19.122;2023-10-19T02:06:42;8.50;64.40
14873;DHT22;7528;48.576;19.122;2023-10-19T02:11:49;8.50;64.70
14873;DHT22;7528;48.576;19.122;2023-10-19T02:16:55;8.60;65.00
14873;DHT22;7528;48.576;19.122;2023-10-19T02:22:01;8.70;64.80
14873;DHT22;7528;48.576;19.122;2023-10-19T02:27:07;8.70;64.50
14873;DHT22;7528;48.576;19.122;2023-10-19T02:32:10;8.80;64.50
14873;DHT22;7528;48.576;19.122;2023-10-19T02:37:12;8.80;64.20
14873;DHT22;7528;48.576;19.122;2023-10-19T02:42:19;8.80;64.30
14873;DHT22;7528;48.576;19.122;2023-10-19T02:47:23;8.80;64.40
14873;DHT22;7528;48.576;19.122;2023-10-19T02:52:25;8.90;64.80
14873;DHT22;7528;48.576;19.122;2023-10-19T02:57:29;8.90;65.10
14873;DHT22;7528;48.576;19.122;2023-10-19T03:02:32;8.90;65.50
14873;DHT22;7528;48.576;19.122;2023-10-19T03:07:34;9.00;65.60
14873;DHT22;7528;48.576;19.122;2023-10-19T03:12:38;8.90;65.60
14873;DHT22;7528;48.576;19.122;2023-10-19T03:17:41;9.00;66.00
14873;DHT22;7528;48.576;19.122;2023-10-19T03:22:44;9.00;66.40
14873;DHT22;7528;48.576;19.122;2023-10-19T03:27:48;9.10;66.50
14873;DHT22;7528;48.576;19.122;2023-10-19T03:32:50;9.10;67.00
14873;DHT22;7528;48.576;19.122;2023-10-19T03:37:53;9.00;66.80
14873;DHT22;7528;48.576;19.122;2023-10-19T03:43:01;9.00;66.70
14873;DHT22;7528;48.576;19.122;2023-10-19T03:48:18;9.00;66.90
14873;DHT22;7528;48.576;19.122;2023-10-19T03:53:25;9.10;67.40
14873;DHT22;7528;48.576;19.122;2023-10-19T03:58:28;9.10;67.20
14873;DHT22;7528;48.576;19.122;2023-10-19T04:03:31;9.10;67.40
14873;DHT22;7528;48.576;19.122;2023-10-19T04:08:35;9.10;67.10
14873;DHT22;7528;48.576;19.122;2023-10-19T04:13:39;9.10;67.30
14873;DHT22;7528;48.576;19.122;2023-10-19T04:18:42;9.20;67.50
14873;DHT22;7528;48.576;19.122;2023-10-19T04:23:45;9.10;68.50
14873;DHT22;7528;48.576;19.122;2023-10-19T04:28:50;9.20;68.60
14873;DHT22;7528;48.576;19.122;2023-10-19T04:33:52;9.20;69.00
14873;DHT22;7528;48.576;19.122;2023-10-19T04:38:55;9.20;70.30
14873;DHT22;7528;48.576;19.122;2023-10-19T04:43:59;9.20;69.80
14873;DHT22;7528;48.576;19.122;2023-10-19T04:49:02;9.20;70.20
14873;DHT22;7528;48.576;19.122;2023-10-19T04:54:04;9.30;70.30
14873;DHT22;7528;48.576;19.122;2023-10-19T04:59:11;9.30;70.30
14873;DHT22;7528;48.576;19.122;2023-10-19T05:04:13;9.30;70.60
14873;DHT22;7528;48.576;19.122;2023-10-19T05:09:17;9.40;70.80
14873;DHT22;7528;48.576;19.122;2023-10-19T05:14:22;9.30;71.10
14873;DHT22;7528;48.576;19.122;2023-10-19T05:19:24;9.40;71.60
14873;DHT22;7528;48.576;19.122;2023-10-19T05:24:27;9.40;72.10
14873;DHT22;7528;48.576;19.122;2023-10-19T05:29:32;9.40;72.30
14873;DHT22;7528;48.576;19.122;2023-10-19T05:34:35;9.40;72.70
14873;DHT22;7528;48.576;19.122;2023-10-19T05:39:37;9.40;75.40
14873;DHT22;7528;48.576;19.122;2023-10-19T05:44:41;9.40;75.60
14873;DHT22;7528;48.576;19.122;2023-10-19T05:49:44;9.40;75.10
14873;DHT22;7528;48.576;19.122;2023-10-19T05:54:46;9.40;75.90
14873;DHT22;7528;48.576;19.122;2023-10-19T05:59:51;9.60;75.90
14873;DHT22;7528;48.576;19.122;2023-10-19T06:04:54;9.60;77.20
14873;DHT22;7528;48.576;19.122;2023-10-19T06:09:58;9.70;77.10
14873;DHT22;7528;48.576;19.122;2023-10-19T06:15:07;9.70;77.50
14873;DHT22;7528;48.576;19.122;2023-10-19T06:20:12;9.70;78.80
14873;DHT22;7528;48.576;19.122;2023-10-19T06:25:24;9.80;79.00
14873;DHT22;7528;48.576;19.122;2023-10-19T06:30:28;9.80;79.00
14873;DHT22;7528;48.576;19.122;2023-10-19T06:35:31;9.80;79.40
14873;DHT22;7528;48.576;19.122;2023-10-19T06:40:34;9.80;80.00
14873;DHT22;7528;48.576;19.122;2023-10-19T06:45:38;9.90;79.90
14873;DHT22;7528;48.576;19.122;2023-10-19T06:50:40;9.90;80.00
14873;DHT22;7528;48.576;19.122;2023-10-19T06:55:43;10.00;80.10
14873;DHT22;7528;48.576;19.122;2023-10-19T07:00:47;10.00;80.30
14873;DHT22;7528;48.576;19.122;2023-10-19T07:05:57;10.10;80.70
14873;DHT22;7528;48.576;19.122;2023-10-19T07:11:00;10.10;81.10
14873;DHT22;7528;48.576;19.122;2023-10-19T07:16:04;10.20;81.40
14873;DHT22;7528;48.576;19.122;2023-10-19T07:21:07;10.30;81.50
14873;DHT22;7528;48.576;19.122;2023-10-19T07:26:10;10.30;81.00
14873;DHT22;7528;48.576;19.122;2023-10-19T07:31:16;10.30;81.60
14873;DHT22;7528;48.576;19.122;2023-10-19T07:36:18;10.30;82.00
14873;DHT22;7528;48.576;19.122;2023-10-19T07:41:20;10.30;82.10
14873;DHT22;7528;48.576;19.122;2023-10-19T07:46:24;10.40;82.00
14873;DHT22;7528;48.576;19.122;2023-10-19T07:51:27;10.40;82.30
14873;DHT22;7528;48.576;19.122;2023-10-19T07:56:30;10.40;82.60
14873;DHT22;7528;48.576;19.122;2023-10-19T08:01:36;10.40;82.80
14873;DHT22;7528;48.576;19.122;2023-10-19T08:06:38;10.40;82.60
14873;DHT22;7528;48.576;19.122;2023-10-19T08:11:40;10.50;82.20
14873;DHT22;7528;48.576;19.122;2023-10-19T08:16:44;10.50;82.90
14873;DHT22;7528;48.576;19.122;2023-10-19T08:21:47;10.50;83.30
14873;DHT22;7528;48.576;19.122;2023-10-19T08:26:49;10.50;84.00
14873;DHT22;7528;48.576;19.122;2023-10-19T08:31:53;10.60;84.00
14873;DHT22;7528;48.576;19.122;2023-10-19T08:36:55;10.70;83.70
14873;DHT22;7528;48.576;19.122;2023-10-19T08:41:58;10.70;83.70
14873;DHT22;7528;48.576;19.122;2023-10-19T08:47:02;10.70;84.10
14873;DHT22;7528;48.576;19.122;2023-10-19T08:52:07;10.70;84.40
14873;DHT22;7528;48.576;19.122;2023-10-19T08:57:10;10.70;85.10
14873;DHT22;7528;48.576;19.122;2023-10-19T09:02:14;10.70;85.10
14873;DHT22;7528;48.576;19.122;2023-10-19T09:07:17;10.90;85.30
14873;DHT22;7528;48.576;19.122;2023-10-19T09:12:19;11.00;85.10
14873;DHT22;7528;48.576;19.122;2023-10-19T09:17:29;11.00;85.10
14873;DHT22;7528;48.576;19.122;2023-10-19T09:22:35;11.00;85.50
14873;DHT22;7528;48.576;19.122;2023-10-19T09:27:45;11.10;85.00
14873;DHT22;7528;48.576;19.122;2023-10-19T09:32:49;11.00;85.10
14873;DHT22;7528;48.576;19.122;2023-10-19T09:37:54;11.00;86.30
14873;DHT22;7528;48.576;19.122;2023-10-19T09:42:58;11.00;86.20
14873;DHT22;7528;48.576;19.122;2023-10-19T09:48:09;11.10;86.70
14873;DHT22;7528;48.576;19.122;2023-10-19T09:53:18;11.00;86.10
14873;DHT22;7528;48.576;19.122;2023-10-19T09:58:24;11.10;86.30
14873;DHT22;7528;48.576;19.122;2023-10-19T10:03:45;11.20;86.40
14873;DHT22;7528;48.576;19.122;2023-10-19T10:08:48;11.20;86.60
14873;DHT22;7528;48.576;19.122;2023-10-19T10:13:51;11.30;87.60
14873;DHT22;7528;48.576;19.122;2023-10-19T10:18:59;11.40;86.10
14873;DHT22;7528;48.576;19.122;2023-10-19T10:24:03;11.40;86.50
14873;DHT22;7528;48.576;19.122;2023-10-19T10:29:11;11.40;86.20
14873;DHT22;7528;48.576;19.122;2023-10-19T10:34:44;11.40;87.70
14873;DHT22;7528;48.576;19.122;2023-10-19T10:39:46;11.50;86.90
14873;DHT22;7528;48.576;19.122;2023-10-19T10:44:49;11.50;86.70
14873;DHT22;7528;48.576;19.122;2023-10-19T10:49:59;11.70;86.90
14873;DHT22;7528;48.576;19.122;2023-10-19T10:55:07;11.70;86.60
14873;DHT22;7528;48.576;19.122;2023-10-19T11:00:13;11.80;86.90
14873;DHT22;7528;48.576;19.122;2023-10-19T11:05:21;11.90;86.60
14873;DHT22;7528;48.576;19.122;2023-10-19T11:10:28;11.90;86.60
14873;DHT22;7528;48.576;19.122;2023-10-19T11:15:30;11.90;87.50
14873;DHT22;7528;48.576;19.122;2023-10-19T11:20:35;11.90;86.40
14873;DHT22;7528;48.576;19.122;2023-10-19T11:25:37;12.00;86.90
14873;DHT22;7528;48.576;19.122;2023-10-19T11:30:40;12.00;86.50
14873;DHT22;7528;48.576;19.122;2023-10-19T11:35:43;12.10;86.10
14873;DHT22;7528;48.576;19.122;2023-10-19T11:40:46;12.10;86.20
14873;DHT22;7528;48.576;19.122;2023-10-19T11:45:48;12.10;86.00
14873;DHT22;7528;48.576;19.122;2023-10-19T11:50:52;12.00;86.30
14873;DHT22;7528;48.576;19.122;2023-10-19T11:55:55;12.00;86.50
14873;DHT22;7528;48.576;19.122;2023-10-19T12:00:57;12.00;86.80
14873;DHT22;7528;48.576;19.122;2023-10-19T12:06:01;12.10;86.50
14873;DHT22;7528;48.576;19.122;2023-10-19T12:11:05;12.10;86.50
14873;DHT22;7528;48.576;19.122;2023-10-19T12:16:16;12.10;86.80
14873;DHT22;7528;48.576;19.122;2023-10-19T12:21:20;12.20;86.60
14873;DHT22;7528;48.576;19.122;2023-10-19T12:26:28;12.10;87.20
14873;DHT22;7528;48.576;19.122;2023-10-19T12:31:31;12.20;87.00
14873;DHT22;7528;48.576;19.122;2023-10-19T12:36:36;12.20;87.30
14873;DHT22;7528;48.576;19.122;2023-10-19T12:41:38;12.20;87.50
14873;DHT22;7528;48.576;19.122;2023-10-19T12:46:40;12.20;87.50
14873;DHT22;7528;48.576;19.122;2023-10-19T12:51:44;12.30;87.70
14873;DHT22;7528;48.576;19.122;2023-10-19T12:56:47;12.30;87.10
14873;DHT22;7528;48.576;19.122;2023-10-19T13:01:50;12.40;86.80
14873;DHT22;7528;48.576;19.122;2023-10-19T13:06:57;12.30;87.10
14873;DHT22;7528;48.576;19.122;2023-10-19T13:12:00;12.30;87.40
14873;DHT22;7528;48.576;19.122;2023-10-19T13:17:02;12.40;87.20
14873;DHT22;7528;48.576;19.122;2023-10-19T13:22:06;12.40;87.30
14873;DHT22;7528;48.576;19.122;2023-10-19T13:27:09;12.40;87.20
14873;DHT22;7528;48.576;19.122;2023-10-19T13:32:11;12.40;87.20
14873;DHT22;7528;48.576;19.122;2023-10-19T13:37:14;12.30;87.00
14873;DHT22;7528;48.576;19.122;2023-10-19T13:42:17;12.40;87.30
14873;DHT22;7528;48.576;19.122;2023-10-19T13:47:19;12.40;86.60
14873;DHT22;7528;48.576;19.122;2023-10-19T13:52:23;12.40;86.70
14873;DHT22;7528;48.576;19.122;2023-10-19T13:57:26;12.40;86.80
14873;DHT22;7528;48.576;19.122;2023-10-19T14:02:28;12.40;87.30
14873;DHT22;7528;48.576;19.122;2023-10-19T14:07:32;12.30;87.20
14873;DHT22;7528;48.576;19.122;2023-10-19T14:12:34;12.30;87.10
14873;DHT22;7528;48.576;19.122;2023-10-19T14:17:37;12.40;87.20
14873;DHT22;7528;48.576;19.122;2023-10-19T14:22:42;12.40;87.50
14873;DHT22;7528;48.576;19.122;2023-10-19T14:27:45;12.40;88.60
14873;DHT22;7528;48.576;19.122;2023-10-19T14:32:49;12.50;88.00
14873;DHT22;7528;48.576;19.122;2023-10-19T14:37:54;12.50;87.70
14873;DHT22;7528;48.576;19.122;2023-10-19T14:42:57;12.40;88.20
14873;DHT22;7528;48.576;19.122;2023-10-19T14:47:59;12.40;88.40
14873;DHT22;7528;48.576;19.122;2023-10-19T14:53:05;12.50;88.70
14873;DHT22;7528;48.576;19.122;2023-10-19T14:58:08;12.50;88.40
14873;DHT22;7528;48.576;19.122;2023-10-19T15:03:10;12.50;88.50
14873;DHT22;7528;48.576;19.122;2023-10-19T15:08:15;12.50;88.50
14873;DHT22;7528;48.576;19.122;2023-10-19T15:13:18;12.50;88.50
14873;DHT22;7528;48.576;19.122;2023-10-19T15:18:20;12.60;88.10
14873;DHT22;7528;48.576;19.122;2023-10-19T15:23:24;12.60;88.10
14873;DHT22;7528;48.576;19.122;2023-10-19T15:28:26;12.60;88.20
14873;DHT22;7528;48.576;19.122;2023-10-19T15:33:33;12.60;88.10
14873;DHT22;7528;48.576;19.122;2023-10-19T15:38:36;12.60;88.20
14873;DHT22;7528;48.576;19.122;2023-10-19T15:43:39;12.60;87.60
14873;DHT22;7528;48.576;19.122;2023-10-19T15:48:41;12.60;87.30
14873;DHT22;7528;48.576;19.122;2023-10-19T15:53:45;12.70;87.50
14873;DHT22;7528;48.576;19.122;2023-10-19T15:58:47;12.70;87.60
14873;DHT22;7528;48.576;19.122;2023-10-19T16:03:49;12.70;87.70
14873;DHT22;7528;48.576;19.122;2023-10-19T16:08:53;12.70;87.50
14873;DHT22;7528;48.576;19.122;2023-10-19T16:13:56;12.70;87.40
14873;DHT22;7528;48.576;19.122;2023-10-19T16:18:59;12.70;87.10
14873;DHT22;7528;48.576;19.122;2023-10-19T16:24:03;12.80;87.30
14873;DHT22;7528;48.576;19.122;2023-10-19T16:29:05;12.80;87.30
14873;DHT22;7528;48.576;19.122;2023-10-19T16:34:16;12.90;87.10
14873;DHT22;7528;48.576;19.122;2023-10-19T16:39:20;12.90;86.80
14873;DHT22;7528;48.576;19.122;2023-10-19T16:44:23;12.90;86.90
14873;DHT22;7528;48.576;19.122;2023-10-19T16:49:26;12.90;87.10
14873;DHT22;7528;48.576;19.122;2023-10-19T16:54:30;12.90;87.40
14873;DHT22;7528;48.576;19.122;2023-10-19T16:59:32;12.90;87.50
14873;DHT22;7528;48.576;19.122;2023-10-19T17:04:34;12.90;87.20
14873;DHT22;7528;48.576;19.122;2023-10-19T18:18:33;10.40;96.50
14873;DHT22;7528;48.576;19.122;2023-10-19T18:23:36;11.10;96.90
14873;DHT22;7528;48.576;19.122;2023-10-19T18:28:38;11.90;94.90
14873;DHT22;7528;48.576;19.122;2023-10-19T18:33:45;12.30;93.30
14873;DHT22;7528;48.576;19.122;2023-10-19T18:38:48;12.50;92.50
14873;DHT22;7528;48.576;19.122;2023-10-19T18:43:50;12.70;92.00
14873;DHT22;7528;48.576;19.122;2023-10-19T18:48:55;12.80;91.60
14873;DHT22;7528;48.576;19.122;2023-10-19T18:54:00;12.80;91.30
14873;DHT22;7528;48.576;19.122;2023-10-19T18:59:04;12.90;91.00
14873;DHT22;7528;48.576;19.122;2023-10-19T19:04:09;12.90;90.80
14873;DHT22;7528;48.576;19.122;2023-10-19T19:09:12;13.00;90.80
14873;DHT22;7528;48.576;19.122;2023-10-19T19:14:17;13.00;90.70
14873;DHT22;7528;48.576;19.122;2023-10-19T19:19:21;13.00;90.70
14873;DHT22;7528;48.576;19.122;2023-10-19T19:24:23;13.00;90.80
14873;DHT22;7528;48.576;19.122;2023-10-19T19:29:26;13.00;90.70
14873;DHT22;7528;48.576;19.122;2023-10-19T19:34:29;13.00;90.70
14873;DHT22;7528;48.576;19.122;2023-10-19T19:39:32;13.00;90.80
14873;DHT22;7528;48.576;19.122;2023-10-19T19:44:34;13.00;90.80
14873;DHT22;7528;48.576;19.122;2023-10-19T19:49:38;13.00;90.90
14873;DHT22;7528;48.576;19.122;2023-10-19T19:54:40;13.10;90.70
14873;DHT22;7528;48.576;19.122;2023-10-19T19:59:42;13.10;90.60
14873;DHT22;7528;48.576;19.122;2023-10-19T20:04:46;13.10;90.60
14873;DHT22;7528;48.576;19.122;2023-10-19T20:09:50;13.10;90.50
14873;DHT22;7528;48.576;19.122;2023-10-19T20:14:53;13.20;90.30
14873;DHT22;7528;48.576;19.122;2023-10-19T20:19:57;13.20;90.30
14873;DHT22;7528;48.576;19.122;2023-10-19T20:24:59;13.20;90.20
14873;DHT22;7528;48.576;19.122;2023-10-19T20:30:02;13.20;90.30
14873;DHT22;7528;48.576;19.122;2023-10-19T20:35:07;13.20;90.50
14873;DHT22;7528;48.576;19.122;2023-10-19T20:40:10;13.20;90.50
14873;DHT22;7528;48.576;19.122;2023-10-19T20:45:13;13.30;90.20
14873;DHT22;7528;48.576;19.122;2023-10-19T20:50:19;13.30;90.40
14873;DHT22;7528;48.576;19.122;2023-10-19T20:55:22;13.20;90.40
14873;DHT22;7528;48.576;19.122;2023-10-19T21:00:24;13.30;90.40
14873;DHT22;7528;48.576;19.122;2023-10-19T21:05:29;13.20;90.40
14873;DHT22;7528;48.576;19.122;2023-10-19T21:10:32;13.30;90.50
14873;DHT22;7528;48.576;19.122;2023-10-19T21:15:35;13.30;90.40
14873;DHT22;7528;48.576;19.122;2023-10-19T21:20:39;13.20;90.40
14873;DHT22;7528;48.576;19.122;2023-10-19T21:25:41;13.30;90.30
14873;DHT22;7528;48.576;19.122;2023-10-19T21:30:43;13.20;90.50
14873;DHT22;7528;48.576;19.122;2023-10-19T21:35:47;13.30;90.40
14873;DHT22;7528;48.576;19.122;2023-10-19T21:40:49;13.30;90.40
14873;DHT22;7528;48.576;19.122;2023-10-19T21:45:52;13.30;90.30
14873;DHT22;7528;48.576;19.122;2023-10-19T21:50:57;13.30;90.20
14873;DHT22;7528;48.576;19.122;2023-10-19T21:56:00;13.40;90.20
14873;DHT22;7528;48.576;19.122;2023-10-19T22:01:03;13.30;90.10
14873;DHT22;7528;48.576;19.122;2023-10-19T22:06:08;13.40;90.00
14873;DHT22;7528;48.576;19.122;2023-10-19T22:11:10;13.40;90.10
14873;DHT22;7528;48.576;19.122;2023-10-19T22:16:12;13.30;90.20
14873;DHT22;7528;48.576;19.122;2023-10-19T22:21:16;13.30;90.60
14873;DHT22;7528;48.576;19.122;2023-10-19T22:26:18;13.30;90.60
14873;DHT22;7528;48.576;19.122;2023-10-19T22:31:21;13.40;90.70
14873;DHT22;7528;48.576;19.122;2023-10-19T22:36:24;13.40;90.60
14873;DHT22;7528;48.576;19.122;2023-10-19T22:41:27;13.40;90.60
14873;DHT22;7528;48.576;19.122;2023-10-19T22:46:29;13.40;90.40
14873;DHT22;7528;48.576;19.122;2023-10-19T22:51:33;13.40;90.60
14873;DHT22;7528;48.576;19.122;2023-10-19T22:56:36;13.40;90.60
14873;DHT22;7528;48.576;19.122;2023-10-19T23:01:38;13.50;90.60
14873;DHT22;7528;48.576;19.122;2023-10-19T23:06:42;13.50;90.50
14873;DHT22;7528;48.576;19.122;2023-10-19T23:11:44;13.50;90.60
14873;DHT22;7528;48.576;19.122;2023-10-19T23:16:51;13.40;90.60
14873;DHT22;7528;48.576;19.122;2023-10-19T23:21:56;13.40;90.60
14873;DHT22;7528;48.576;19.122;2023-10-19T23:26:59;13.40;90.70
14873;DHT22;7528;48.576;19.122;2023-10-19T23:32:01;13.40;90.60
14873;DHT22;7528;48.576;19.122;2023-10-19T23:37:05;13.50;90.90
14873;DHT22;7528;48.576;19.122;2023-10-19T23:42:10;13.40;90.90
14873;DHT22;7528;48.576;19.122;2023-10-19T23:47:15;13.40;90.70
14873;DHT22;7528;48.576;19.122;2023-10-19T23:52:19;13.40;90.90
14873;DHT22;7528;48.576;19.122;2023-10-19T23:57:21;13.50;91.10
